Time;durP1;ratioP1;P1;durP2;ratioP2;P2;SDS_P1;SDS_P2;PMS_P1;PMS_P2;Temp;Humidity;BMP_temperature;BMP_pressure;BME280_temperature;BME280_humidity;BME280_pressure;Samples;Min_cycle;Max_cycle;Signal;HPM_P1;HPM_P2
2022/09/07 00:00:28;;;;;;;3.17;0.88;;;;;;;;;;5006909;28;20033;-84
2022/09/07 00:03:15;;;;;;;2.95;0.68;;;;;;;;;;5019516;28;20049;-84
2022/09/07 00:06:06;;;;;;;3.33;1.00;;;;;;;;;;5021105;28;20503;-84
2022/09/07 00:08:52;;;;;;;2.73;0.93;;;;;;;;;;5026340;28;20048;-86
2022/09/07 00:11:40;;;;;;;2.20;0.60;;;;;;;;;;5009106;28;20282;-83
2022/09/07 00:14:26;;;;;;;2.95;0.68;;;;;;;;;;5011827;28;20033;-84
2022/09/07 00:17:13;;;;;;;2.20;0.70;;;;;;;;;;5011037;28;20116;-85
2022/09/07 00:20:10;;;;;;;3.70;0.73;;;;;;;;;;5038426;28;20033;-85
2022/09/07 00:22:56;;;;;;;1.85;0.70;;;;;;;;;;5026464;28;20025;-83
2022/09/07 00:25:42;;;;;;;1.17;0.60;;;;;;;;;;5015859;28;20056;-86
2022/09/07 00:28:28;;;;;;;3.60;0.47;;;;;;;;;;5019387;28;20047;-83
2022/09/07 00:31:16;;;;;;;2.15;0.52;;;;;;;;;;5009085;28;20447;-83
2022/09/07 00:34:02;;;;;;;1.55;0.30;;;;;;;;;;5008965;28;20028;-82
2022/09/07 00:36:48;;;;;;;3.05;0.75;;;;;;;;;;5022859;28;20041;-82
2022/09/07 00:39:34;;;;;;;3.63;0.90;;;;;;;;;;5024283;28;20407;-83
2022/09/07 00:42:21;;;;;;;2.55;0.52;;;;;;;;;;5025067;28;20069;-83
2022/09/07 00:45:17;;;;;;;3.88;2.58;;;;;;;;;;5025423;28;20043;-84
2022/09/07 00:48:12;;;;;;;3.10;2.05;;;;;;;;;;5024349;28;20033;-85
2022/09/07 00:51:04;;;;;;;8.98;3.97;;;;;;;;;;5026412;28;20040;-86
2022/09/07 00:53:54;;;;;;;9.00;4.40;;;;;;;;;;5024435;28;20056;-84
2022/09/07 00:56:43;;;;;;;8.98;5.72;;;;;;;;;;5023198;28;20040;-85
2022/09/07 00:59:31;;;;;;;11.88;7.00;;;;;;;;;;5020002;28;20065;-84
2022/09/07 01:02:30;;;;;;;13.05;7.50;;;;;;;;;;5010657;28;20079;-88
2022/09/07 01:05:25;;;;;;;11.63;6.72;;;;;;;;;;5023581;28;20041;-84
2022/09/07 01:08:11;;;;;;;9.30;6.35;;;;;;;;;;5035410;28;20037;-86
2022/09/07 01:10:59;;;;;;;7.93;5.03;;;;;;;;;;5007133;28;20044;-84
2022/09/07 01:13:46;;;;;;;8.65;4.65;;;;;;;;;;5024723;28;20052;-86
2022/09/07 01:16:59;;;;;;;6.65;4.15;;;;;;;;;;5025823;28;20041;-84
2022/09/07 01:19:54;;;;;;;7.22;3.67;;;;;;;;;;5038900;28;20044;-85
2022/09/07 01:22:54;;;;;;;5.65;3.38;;;;;;;;;;5045970;28;20067;-87
2022/09/07 01:25:43;;;;;;;4.97;2.63;;;;;;;;;;5037486;28;20049;-85
2022/09/07 01:28:33;;;;;;;6.25;2.55;;;;;;;;;;5048735;28;20075;-84
2022/09/07 01:31:32;;;;;;;4.32;2.08;;;;;;;;;;5020775;28;20047;-84
2022/09/07 01:34:25;;;;;;;5.55;2.67;;;;;;;;;;5011522;28;20091;-83
2022/09/07 01:37:21;;;;;;;5.28;1.73;;;;;;;;;;5025242;28;20037;-83
2022/09/07 01:40:21;;;;;;;3.40;1.60;;;;;;;;;;5013144;28;20120;-83
2022/09/07 01:43:11;;;;;;;3.00;1.77;;;;;;;;;;5013887;28;20040;-83
2022/09/07 01:45:57;;;;;;;3.92;1.50;;;;;;;;;;5024467;28;20086;-83
2022/09/07 01:48:44;;;;;;;3.22;1.30;;;;;;;;;;5009691;28;20041;-83
2022/09/07 01:51:32;;;;;;;2.83;0.90;;;;;;;;;;5011184;28;20590;-83
2022/09/07 01:54:33;;;;;;;4.88;1.25;;;;;;;;;;5011808;28;20052;-83
2022/09/07 01:57:24;;;;;;;3.58;1.50;;;;;;;;;;5023975;28;20040;-84
2022/09/07 02:00:16;;;;;;;3.88;1.80;;;;;;;;;;5024801;28;20064;-84
2022/09/07 02:03:12;;;;;;;5.05;3.28;;;;;;;;;;5012063;28;20033;-85
2022/09/07 02:06:06;;;;;;;10.63;6.25;;;;;;;;;;5005053;28;20071;-87
2022/09/07 02:09:20;;;;;;;6.03;3.38;;;;;;;;;;5019811;28;20128;-85
2022/09/07 02:12:11;;;;;;;6.45;3.95;;;;;;;;;;5018517;28;20122;-86
2022/09/07 02:15:00;;;;;;;8.48;5.15;;;;;;;;;;5010555;28;20126;-85
2022/09/07 02:17:54;;;;;;;7.32;5.70;;;;;;;;;;5009728;28;20044;-85
2022/09/07 02:20:45;;;;;;;8.77;4.75;;;;;;;;;;5021920;28;20534;-89
2022/09/07 02:23:43;;;;;;;6.97;4.82;;;;;;;;;;5023588;28;20071;-85
2022/09/07 02:26:34;;;;;;;7.80;4.82;;;;;;;;;;5021287;28;20044;-84
2022/09/07 02:29:21;;;;;;;9.13;4.38;;;;;;;;;;5007063;28;20025;-84
2022/09/07 02:32:09;;;;;;;8.00;4.97;;;;;;;;;;5009839;28;20037;-85
2022/09/07 02:34:55;;;;;;;7.15;4.35;;;;;;;;;;5009541;28;20106;-85
2022/09/07 02:37:41;;;;;;;6.75;4.50;;;;;;;;;;5020731;28;20063;-85
2022/09/07 02:40:27;;;;;;;7.82;4.18;;;;;;;;;;5023662;28;20033;-85
2022/09/07 02:43:14;;;;;;;5.75;3.60;;;;;;;;;;5024444;28;20041;-86
2022/09/07 02:46:10;;;;;;;6.95;4.10;;;;;;;;;;5009263;28;20048;-86
2022/09/07 02:49:00;;;;;;;6.20;3.25;;;;;;;;;;5038042;28;20047;-85
2022/09/07 02:52:09;;;;;;;6.35;3.90;;;;;;;;;;5050066;28;20036;-85
2022/09/07 02:55:15;;;;;;;6.53;3.53;;;;;;;;;;5039915;28;20404;-86
2022/09/07 02:58:23;;;;;;;6.40;3.30;;;;;;;;;;5049611;28;20112;-86
2022/09/07 03:01:12;;;;;;;4.10;2.38;;;;;;;;;;5049435;28;20076;-86
2022/09/07 03:04:05;;;;;;;5.43;2.35;;;;;;;;;;5049565;28;20041;-86
2022/09/07 03:06:56;;;;;;;4.75;2.30;;;;;;;;;;5036042;28;20052;-86
2022/09/07 03:09:46;;;;;;;5.78;2.28;;;;;;;;;;5023151;28;20037;-85
2022/09/07 03:12:48;;;;;;;4.50;2.03;;;;;;;;;;5023102;28;20029;-85
2022/09/07 03:15:34;;;;;;;4.03;2.05;;;;;;;;;;5023899;28;20095;-86
2022/09/07 03:18:23;;;;;;;4.28;1.73;;;;;;;;;;5010053;28;20039;-86
2022/09/07 03:21:09;;;;;;;3.72;1.95;;;;;;;;;;5037268;28;20049;-86
2022/09/07 03:23:55;;;;;;;2.55;1.20;;;;;;;;;;5022479;28;20408;-86
2022/09/07 03:26:43;;;;;;;5.07;1.35;;;;;;;;;;5022630;28;20029;-86
2022/09/07 03:29:30;;;;;;;3.10;1.30;;;;;;;;;;5010889;28;20452;-86
2022/09/07 03:32:17;;;;;;;4.22;1.27;;;;;;;;;;5010237;28;20037;-85
2022/09/07 03:35:03;;;;;;;3.25;1.30;;;;;;;;;;5010976;28;20069;-85
2022/09/07 03:37:49;;;;;;;3.58;1.20;;;;;;;;;;5026627;28;20112;-85
2022/09/07 03:40:35;;;;;;;3.20;1.27;;;;;;;;;;5013630;28;20044;-86
2022/09/07 03:43:23;;;;;;;2.83;1.00;;;;;;;;;;5013939;28;20044;-87
2022/09/07 03:46:09;;;;;;;1.58;0.88;;;;;;;;;;5025687;28;20511;-85
2022/09/07 03:48:55;;;;;;;1.85;0.95;;;;;;;;;;5026930;28;20083;-85
2022/09/07 03:51:41;;;;;;;1.90;0.70;;;;;;;;;;5013377;28;20044;-86
2022/09/07 03:54:28;;;;;;;1.70;0.60;;;;;;;;;;5027536;28;20086;-86
2022/09/07 03:57:15;;;;;;;2.63;0.88;;;;;;;;;;5014383;28;20511;-85
2022/09/07 04:00:02;;;;;;;2.20;1.10;;;;;;;;;;5026820;28;20034;-85
2022/09/07 04:02:48;;;;;;;1.95;0.63;;;;;;;;;;5027751;28;20037;-85
2022/09/07 04:05:36;;;;;;;1.67;0.70;;;;;;;;;;5027191;28;20040;-86
2022/09/07 04:08:27;;;;;;;2.92;1.20;;;;;;;;;;5025766;28;20041;-86
2022/09/07 04:11:15;;;;;;;2.40;0.60;;;;;;;;;;5014274;28;20139;-85
2022/09/07 04:14:02;;;;;;;1.10;0.60;;;;;;;;;;5013691;28;20041;-86
2022/09/07 04:16:47;;;;;;;2.00;0.80;;;;;;;;;;5026387;28;20094;-85
2022/09/07 04:19:33;;;;;;;3.10;0.80;;;;;;;;;;5027104;28;20048;-85
2022/09/07 04:22:19;;;;;;;2.60;0.77;;;;;;;;;;5026788;28;20033;-86
2022/09/07 04:25:08;;;;;;;1.20;0.50;;;;;;;;;;5026180;28;20045;-87
2022/09/07 04:27:55;;;;;;;1.83;0.50;;;;;;;;;;5026226;28;20422;-87
2022/09/07 04:30:40;;;;;;;2.33;0.70;;;;;;;;;;5012805;28;20091;-84
2022/09/07 04:33:26;;;;;;;1.17;0.40;;;;;;;;;;5026680;28;20037;-85
2022/09/07 04:36:12;;;;;;;1.08;0.55;;;;;;;;;;5026193;28;20037;-85
2022/09/07 04:38:59;;;;;;;5.57;1.00;;;;;;;;;;5012476;28;20041;-85
2022/09/07 04:41:46;;;;;;;1.23;0.43;;;;;;;;;;4996082;28;20045;-85
2022/09/07 04:44:32;;;;;;;2.22;0.88;;;;;;;;;;5006810;28;20049;-86
2022/09/07 04:47:18;;;;;;;1.88;0.50;;;;;;;;;;4991732;28;20563;-85
2022/09/07 04:50:04;;;;;;;1.88;0.50;;;;;;;;;;5006913;28;20511;-86
2022/09/07 04:52:51;;;;;;;3.55;0.40;;;;;;;;;;4992626;28;20052;-85
2022/09/07 04:55:39;;;;;;;0.90;0.47;;;;;;;;;;4993576;28;20041;-85
2022/09/07 04:58:25;;;;;;;1.98;0.60;;;;;;;;;;5005668;28;20068;-86
2022/09/07 05:01:14;;;;;;;2.05;0.60;;;;;;;;;;4992779;28;20033;-86
2022/09/07 05:04:01;;;;;;;1.20;0.40;;;;;;;;;;4992621;28;20025;-86
2022/09/07 05:06:48;;;;;;;1.52;0.60;;;;;;;;;;4992513;28;20416;-87
2022/09/07 05:09:36;;;;;;;1.45;0.57;;;;;;;;;;4992994;28;20041;-86
2022/09/07 05:12:21;;;;;;;2.17;0.60;;;;;;;;;;5006821;28;20045;-85
2022/09/07 05:15:08;;;;;;;1.90;0.57;;;;;;;;;;5004131;28;20092;-86
2022/09/07 05:17:56;;;;;;;2.08;0.50;;;;;;;;;;5009132;28;20060;-84
2022/09/07 05:20:42;;;;;;;1.52;0.43;;;;;;;;;;5013617;28;20033;-85
2022/09/07 05:23:28;;;;;;;2.30;0.38;;;;;;;;;;5011115;28;20044;-86
2022/09/07 05:26:14;;;;;;;1.60;0.32;;;;;;;;;;5025986;28;20060;-88
2022/09/07 05:29:01;;;;;;;1.30;0.65;;;;;;;;;;5012217;28;20136;-89
2022/09/07 05:31:48;;;;;;;1.75;0.30;;;;;;;;;;5012395;28;20048;-92
2022/09/07 05:34:35;;;;;;;4.05;0.50;;;;;;;;;;5010825;28;20115;-93
2022/09/07 05:37:22;;;;;;;5.30;1.40;;;;;;;;;;5012656;28;20039;-93
2022/09/07 05:40:09;;;;;;;4.25;0.60;;;;;;;;;;5012575;28;20083;-91
2022/09/07 05:42:58;;;;;;;6.68;1.23;;;;;;;;;;5011691;28;20040;-92
2022/09/07 05:45:55;;;;;;;4.40;0.80;;;;;;;;;;5005652;28;20057;-95
2022/09/07 05:48:45;;;;;;;1.75;0.60;;;;;;;;;;5020159;28;20049;-93
2022/09/07 05:51:33;;;;;;;1.67;0.65;;;;;;;;;;5003983;28;20041;-92
2022/09/07 05:54:21;;;;;;;5.50;1.25;;;;;;;;;;5026518;28;20041;-93
2022/09/07 05:57:10;;;;;;;5.47;0.98;;;;;;;;;;5024934;28;20045;-93
2022/09/07 05:59:56;;;;;;;11.18;1.50;;;;;;;;;;5020547;28;20045;-93
2022/09/07 06:02:44;;;;;;;7.95;1.27;;;;;;;;;;5011589;28;20029;-92
2022/09/07 06:05:31;;;;;;;7.00;1.42;;;;;;;;;;5011849;28;20116;-93
2022/09/07 06:08:20;;;;;;;6.60;1.38;;;;;;;;;;5011042;28;20037;-93
2022/09/07 06:11:12;;;;;;;4.15;1.27;;;;;;;;;;5024371;28;20123;-92
2022/09/07 06:14:14;;;;;;;5.65;2.10;;;;;;;;;;5033535;28;20063;-92
2022/09/07 06:17:03;;;;;;;4.95;1.40;;;;;;;;;;5005617;28;20049;-93
2022/09/07 06:19:57;;;;;;;7.75;1.15;;;;;;;;;;5005659;28;20692;-94
2022/09/07 06:23:10;;;;;;;6.45;1.15;;;;;;;;;;5005887;28;20097;-94
2022/09/07 06:26:21;;;;;;;7.03;2.03;;;;;;;;;;5016669;28;20046;-94
2022/09/07 06:29:33;;;;;;;7.18;1.63;;;;;;;;;;5022364;28;20037;-95
2022/09/07 06:32:29;;;;;;;5.13;1.08;;;;;;;;;;5018387;28;20045;-94
2022/09/07 06:39:17;;;;;;;;;;;;;;;;;;5033174;28;20054;-94
2022/09/07 06:43:08;;;;;;;5.38;1.10;;;;;;;;;;5032532;28;19979;-94
2022/09/07 06:46:17;;;;;;;4.70;0.82;;;;;;;;;;5033344;28;20046;-94
2022/09/07 06:49:06;;;;;;;1.98;1.10;;;;;;;;;;5018889;28;20128;-93
2022/09/07 06:51:55;;;;;;;1.90;0.63;;;;;;;;;;4991863;28;20044;-94
2022/09/07 06:54:41;;;;;;;4.53;1.13;;;;;;;;;;4991865;28;20040;-94
2022/09/07 06:57:28;;;;;;;2.75;0.80;;;;;;;;;;4991105;28;20034;-94
2022/09/07 07:00:19;;;;;;;1.85;0.73;;;;;;;;;;4991611;28;20132;-93
2022/09/07 07:03:08;;;;;;;3.20;0.90;;;;;;;;;;5005551;28;20098;-90
2022/09/07 07:05:59;;;;;;;4.13;0.90;;;;;;;;;;4993127;28;20098;-93
2022/09/07 07:09:08;;;;;;;3.40;0.88;;;;;;;;;;5010496;28;20047;-92
2022/09/07 07:12:20;;;;;;;2.28;0.85;;;;;;;;;;5052509;28;20044;-92
2022/09/07 07:15:24;;;;;;;1.38;0.75;;;;;;;;;;5021258;28;20512;-93
2022/09/07 07:18:23;;;;;;;3.90;0.73;;;;;;;;;;5021511;28;20100;-95
2022/09/07 07:28:44;;;;;;;3.15;1.25;;;;;;;;;;5006958;28;20120;-93
2022/09/07 07:32:35;;;;;;;4.57;0.90;;;;;;;;;;4976923;28;20050;-95
2022/09/07 07:35:21;;;;;;;3.70;0.93;;;;;;;;;;4991989;28;20034;-87
2022/09/07 07:38:08;;;;;;;10.98;1.40;;;;;;;;;;4964693;28;20046;-88
2022/09/07 07:40:55;;;;;;;3.55;0.90;;;;;;;;;;4964421;28;20054;-87
2022/09/07 07:43:40;;;;;;;4.28;1.38;;;;;;;;;;4964662;28;20046;-87
2022/09/07 07:46:32;;;;;;;2.20;1.08;;;;;;;;;;4977193;28;20046;-88
2022/09/07 07:49:24;;;;;;;1.90;0.90;;;;;;;;;;4965113;28;20542;-87
2022/09/07 07:52:11;;;;;;;3.55;1.02;;;;;;;;;;4980951;28;20105;-87
2022/09/07 07:54:58;;;;;;;3.00;0.93;;;;;;;;;;4968202;28;20034;-87
2022/09/07 07:57:49;;;;;;;2.03;1.10;;;;;;;;;;4964854;28;20064;-87
2022/09/07 08:00:36;;;;;;;5.20;0.93;;;;;;;;;;4991053;28;20050;-86
2022/09/07 08:03:22;;;;;;;2.08;0.70;;;;;;;;;;5024880;28;20041;-86
2022/09/07 08:06:10;;;;;;;4.47;1.88;;;;;;;;;;5011670;28;20061;-86
2022/09/07 08:08:57;;;;;;;8.70;4.47;;;;;;;;;;5023517;28;20516;-86
2022/09/07 08:11:44;;;;;;;8.80;4.78;;;;;;;;;;5009662;28;20059;-86
2022/09/07 08:14:31;;;;;;;6.20;3.50;;;;;;;;;;5009047;28;20091;-86
2022/09/07 08:17:18;;;;;;;4.60;2.17;;;;;;;;;;5015157;28;20040;-85
2022/09/07 08:20:04;;;;;;;5.13;1.38;;;;;;;;;;5007370;28;20466;-84
2022/09/07 08:22:49;;;;;;;5.75;2.03;;;;;;;;;;5019505;28;20039;-86
2022/09/07 08:25:35;;;;;;;2.67;1.00;;;;;;;;;;5018612;28;20045;-85
2022/09/07 08:28:22;;;;;;;3.72;0.98;;;;;;;;;;5011935;28;20064;-85
2022/09/07 08:31:10;;;;;;;1.88;0.90;;;;;;;;;;5026225;28;20073;-86
2022/09/07 08:33:56;;;;;;;2.95;0.85;;;;;;;;;;5025971;28;20041;-85
2022/09/07 08:36:45;;;;;;;2.50;0.60;;;;;;;;;;5013717;28;20041;-84
2022/09/07 08:39:31;;;;;;;4.07;1.27;;;;;;;;;;5024259;28;20025;-87
2022/09/07 08:42:37;;;;;;;3.25;0.85;;;;;;;;;;5027357;28;20094;-86
2022/09/07 08:45:27;;;;;;;3.67;1.23;;;;;;;;;;5035130;28;20119;-85
2022/09/07 08:48:15;;;;;;;3.20;1.02;;;;;;;;;;5006487;28;20045;-85
2022/09/07 08:51:14;;;;;;;1.95;0.75;;;;;;;;;;5026210;28;20029;-84
2022/09/07 08:54:00;;;;;;;3.30;0.70;;;;;;;;;;5021650;28;20046;-85
2022/09/07 08:56:50;;;;;;;2.17;0.77;;;;;;;;;;5012097;28;20037;-85
2022/09/07 08:59:46;;;;;;;3.75;0.77;;;;;;;;;;5012391;28;20049;-85
2022/09/07 09:02:33;;;;;;;3.10;0.60;;;;;;;;;;5025391;28;20426;-85
2022/09/07 09:05:28;;;;;;;2.22;1.00;;;;;;;;;;5011128;28;20041;-82
2022/09/07 09:08:17;;;;;;;3.45;0.90;;;;;;;;;;5051462;28;20056;-83
2022/09/07 09:11:43;;;;;;;4.05;1.30;;;;;;;;;;5051504;28;20503;-83
2022/09/07 09:14:47;;;;;;;2.83;0.88;;;;;;;;;;4983640;28;20053;-82
2022/09/07 09:17:43;;;;;;;2.60;0.80;;;;;;;;;;4979185;28;20041;-83
2022/09/07 09:20:33;;;;;;;2.42;0.70;;;;;;;;;;5024722;28;20037;-82
2022/09/07 09:23:20;;;;;;;2.55;0.80;;;;;;;;;;5038060;28;20507;-83
2022/09/07 09:26:23;;;;;;;3.38;0.93;;;;;;;;;;5011509;28;20041;-83
2022/09/07 09:29:17;;;;;;;4.43;1.67;;;;;;;;;;5025092;28;20515;-82
2022/09/07 09:32:32;;;;;;;3.20;0.77;;;;;;;;;;5010715;28;20084;-83
2022/09/07 09:35:33;;;;;;;4.60;1.02;;;;;;;;;;5039073;28;20072;-83
2022/09/07 09:38:29;;;;;;;5.40;1.35;;;;;;;;;;5012366;28;20033;-83
2022/09/07 09:41:15;;;;;;;4.65;0.90;;;;;;;;;;5038577;28;20518;-83
2022/09/07 09:44:02;;;;;;;3.08;0.75;;;;;;;;;;5024523;28;20078;-83
2022/09/07 09:46:49;;;;;;;4.47;0.68;;;;;;;;;;5010545;28;20064;-83
2022/09/07 09:49:37;;;;;;;2.55;0.60;;;;;;;;;;5009809;28;20051;-83
2022/09/07 09:52:23;;;;;;;2.13;0.70;;;;;;;;;;5024104;28;20072;-83
2022/09/07 09:55:17;;;;;;;2.45;1.05;;;;;;;;;;5010493;28;20411;-85
2022/09/07 09:58:27;;;;;;;4.15;0.93;;;;;;;;;;5010851;28;20040;-84
2022/09/07 10:01:24;;;;;;;6.28;1.20;;;;;;;;;;5024416;28;20076;-84
2022/09/07 10:04:30;;;;;;;9.07;2.00;;;;;;;;;;5009946;28;20499;-85
2022/09/07 10:07:21;;;;;;;3.40;0.68;;;;;;;;;;5037734;28;20037;-86
2022/09/07 10:10:14;;;;;;;4.75;1.10;;;;;;;;;;5012278;28;20040;-92
2022/09/07 10:13:02;;;;;;;4.68;0.60;;;;;;;;;;5024475;28;20033;-86
2022/09/07 10:15:55;;;;;;;4.10;1.00;;;;;;;;;;5010347;28;20061;-86
2022/09/07 10:19:02;;;;;;;5.05;0.65;;;;;;;;;;5010177;28;20507;-86
2022/09/07 10:21:56;;;;;;;5.00;0.85;;;;;;;;;;5024054;28;20036;-86
2022/09/07 10:24:42;;;;;;;3.80;0.70;;;;;;;;;;5012059;28;20064;-87
2022/09/07 10:27:29;;;;;;;3.25;0.73;;;;;;;;;;5010325;28;20462;-86
2022/09/07 10:30:15;;;;;;;2.60;0.85;;;;;;;;;;5037347;28;20037;-86
2022/09/07 10:33:07;;;;;;;5.78;0.93;;;;;;;;;;5023399;28;20509;-87
2022/09/07 10:36:10;;;;;;;3.00;0.60;;;;;;;;;;5011554;28;20530;-86
2022/09/07 10:38:59;;;;;;;2.97;0.68;;;;;;;;;;5036953;28;20041;-87
2022/09/07 10:42:28;;;;;;;2.03;0.50;;;;;;;;;;5022941;28;20048;-87
2022/09/07 10:45:27;;;;;;;2.47;0.50;;;;;;;;;;5022767;28;20049;-86
2022/09/07 10:48:53;;;;;;;1.55;0.40;;;;;;;;;;5037948;28;20454;-87
2022/09/07 10:51:41;;;;;;;3.05;0.90;;;;;;;;;;5039383;28;20079;-86
2022/09/07 10:54:38;;;;;;;3.50;0.70;;;;;;;;;;5050181;28;20072;-86
2022/09/07 10:57:36;;;;;;;2.40;0.45;;;;;;;;;;5037452;28;20033;-86
2022/09/07 11:00:22;;;;;;;4.45;0.82;;;;;;;;;;5050070;28;20576;-86
2022/09/07 11:03:12;;;;;;;4.30;1.02;;;;;;;;;;5023428;28;20045;-87
2022/09/07 11:06:03;;;;;;;4.35;1.17;;;;;;;;;;5050657;28;20033;-87
2022/09/07 11:09:23;;;;;;;5.50;1.70;;;;;;;;;;5049820;28;20511;-87
2022/09/07 11:12:17;;;;;;;9.15;4.28;;;;;;;;;;5038068;28;20102;-86
2022/09/07 11:15:12;;;;;;;6.30;2.13;;;;;;;;;;5010118;28;20106;-87
2022/09/07 11:18:29;;;;;;;7.18;1.73;;;;;;;;;;5050022;28;20052;-87
2022/09/07 11:21:18;;;;;;;4.47;1.00;;;;;;;;;;5027036;28;20550;-86
2022/09/07 11:24:11;;;;;;;4.18;1.08;;;;;;;;;;5023737;28;20037;-85
2022/09/07 11:27:07;;;;;;;3.10;0.70;;;;;;;;;;5009159;28;20087;-85
2022/09/07 11:30:15;;;;;;;3.33;1.25;;;;;;;;;;5009363;28;20033;-85
2022/09/07 11:33:05;;;;;;;2.80;0.82;;;;;;;;;;5026551;28;20045;-84
2022/09/07 11:36:06;;;;;;;4.07;0.75;;;;;;;;;;5037257;28;20041;-84
2022/09/07 11:39:20;;;;;;;4.85;0.70;;;;;;;;;;5010643;28;20423;-84
2022/09/07 11:42:32;;;;;;;2.97;0.52;;;;;;;;;;5035584;28;20310;-83
2022/09/07 11:45:50;;;;;;;2.50;0.80;;;;;;;;;;5036320;28;20045;-83
2022/09/07 11:48:47;;;;;;;6.00;0.90;;;;;;;;;;5010992;28;20079;-83
2022/09/07 11:51:42;;;;;;;3.17;0.73;;;;;;;;;;5008888;28;20052;-83
2022/09/07 11:54:47;;;;;;;2.88;0.80;;;;;;;;;;5023073;28;20033;-83
2022/09/07 11:57:43;;;;;;;6.65;1.05;;;;;;;;;;5025735;28;20120;-85
2022/09/07 12:00:30;;;;;;;3.05;0.60;;;;;;;;;;5014617;28;20045;-82
2022/09/07 12:03:24;;;;;;;4.40;0.80;;;;;;;;;;5039671;28;20049;-85
2022/09/07 12:06:26;;;;;;;2.35;0.68;;;;;;;;;;5040009;28;20434;-83
2022/09/07 12:09:30;;;;;;;3.90;0.73;;;;;;;;;;5052889;28;20041;-85
2022/09/07 12:12:36;;;;;;;5.60;0.95;;;;;;;;;;5052790;28;20422;-84
2022/09/07 12:15:29;;;;;;;4.78;0.70;;;;;;;;;;5013270;28;20033;-83
2022/09/07 12:18:50;;;;;;;2.15;0.88;;;;;;;;;;5039818;28;20108;-83
2022/09/07 12:21:41;;;;;;;5.10;1.00;;;;;;;;;;5028370;28;20094;-84
2022/09/07 12:24:52;;;;;;;8.00;1.17;;;;;;;;;;5026397;28;20499;-84
2022/09/07 12:27:38;;;;;;;4.07;0.85;;;;;;;;;;5040016;28;20044;-83
2022/09/07 12:30:24;;;;;;;1.75;0.40;;;;;;;;;;5011555;28;20084;-84
2022/09/07 12:33:21;;;;;;;3.28;0.50;;;;;;;;;;5052551;28;20037;-83
2022/09/07 12:36:33;;;;;;;7.70;1.00;;;;;;;;;;5011853;28;20048;-84
2022/09/07 12:39:28;;;;;;;2.83;0.60;;;;;;;;;;5052082;28;20049;-83
2022/09/07 12:42:24;;;;;;;3.10;1.00;;;;;;;;;;5011832;28;20057;-82
2022/09/07 12:45:28;;;;;;;5.25;0.70;;;;;;;;;;5025815;28;20045;-84
2022/09/07 12:48:14;;;;;;;2.70;0.50;;;;;;;;;;5052258;28;20061;-83
2022/09/07 12:51:28;;;;;;;2.70;0.75;;;;;;;;;;5052133;28;20116;-84
2022/09/07 12:54:18;;;;;;;2.90;0.85;;;;;;;;;;5040304;28;20494;-83
2022/09/07 12:57:43;;;;;;;2.72;0.57;;;;;;;;;;5025036;28;20435;-83
2022/09/07 13:00:48;;;;;;;2.80;0.88;;;;;;;;;;5039743;28;20090;-83
2022/09/07 13:03:53;;;;;;;5.95;0.90;;;;;;;;;;5053193;28;20041;-84
2022/09/07 13:06:51;;;;;;;3.08;0.80;;;;;;;;;;5012860;28;20098;-84
2022/09/07 13:09:38;;;;;;;3.50;0.85;;;;;;;;;;5051596;28;20033;-83
2022/09/07 13:12:30;;;;;;;3.53;0.43;;;;;;;;;;5024178;28;20043;-82
2022/09/07 13:15:38;;;;;;;2.75;0.65;;;;;;;;;;5038909;28;20033;-82
2022/09/07 13:18:24;;;;;;;2.22;0.88;;;;;;;;;;5051635;28;20033;-82
2022/09/07 13:21:11;;;;;;;1.90;0.63;;;;;;;;;;5051654;28;20037;-84
2022/09/07 13:24:17;;;;;;;3.08;0.50;;;;;;;;;;5051077;28;20044;-83
2022/09/07 13:27:09;;;;;;;2.20;0.60;;;;;;;;;;5051964;28;20485;-82
2022/09/07 13:29:57;;;;;;;2.65;0.60;;;;;;;;;;5051997;28;20048;-82
2022/09/07 13:32:44;;;;;;;2.95;0.70;;;;;;;;;;5011096;28;20037;-81
2022/09/07 13:35:30;;;;;;;2.47;1.15;;;;;;;;;;5026733;28;20033;-82
2022/09/07 13:38:17;;;;;;;3.65;1.15;;;;;;;;;;5012694;28;20392;-83
2022/09/07 13:41:06;;;;;;;3.33;1.02;;;;;;;;;;5027407;28;20033;-83
2022/09/07 13:43:58;;;;;;;5.47;0.93;;;;;;;;;;5027166;28;20068;-82
2022/09/07 13:47:16;;;;;;;2.83;1.10;;;;;;;;;;5024776;28;20045;-84
2022/09/07 13:50:18;;;;;;;2.92;0.75;;;;;;;;;;5041742;28;20123;-83
2022/09/07 13:53:27;;;;;;;6.25;0.95;;;;;;;;;;5014659;28;20060;-82
2022/09/07 13:56:30;;;;;;;2.95;0.80;;;;;;;;;;5042433;28;20062;-81
2022/09/07 13:59:24;;;;;;;5.65;0.88;;;;;;;;;;5041883;28;20060;-83
2022/09/07 14:02:32;;;;;;;3.10;0.85;;;;;;;;;;5027809;28;20073;-82
2022/09/07 14:05:19;;;;;;;3.95;0.70;;;;;;;;;;5028617;28;20044;-82
2022/09/07 14:08:27;;;;;;;7.72;1.35;;;;;;;;;;5030274;28;20177;-81
2022/09/07 14:11:21;;;;;;;3.60;0.85;;;;;;;;;;5028393;28;20040;-83
2022/09/07 14:14:11;;;;;;;6.47;1.08;;;;;;;;;;5015009;28;20037;-82
2022/09/07 14:17:01;;;;;;;6.90;1.42;;;;;;;;;;5037933;28;20029;-84
2022/09/07 14:19:48;;;;;;;13.68;1.30;;;;;;;;;;5038902;28;20037;-82
2022/09/07 14:22:34;;;;;;;6.82;1.35;;;;;;;;;;5026093;28;20062;-82
2022/09/07 14:25:21;;;;;;;7.53;1.25;;;;;;;;;;5014177;28;20040;-83
2022/09/07 14:28:27;;;;;;;9.40;1.15;;;;;;;;;;5016437;28;20037;-84
2022/09/07 14:31:15;;;;;;;10.45;1.92;;;;;;;;;;5029208;28;20049;-83
2022/09/07 14:34:02;;;;;;;5.32;1.10;;;;;;;;;;5012239;28;20080;-84
2022/09/07 14:36:48;;;;;;;4.72;0.90;;;;;;;;;;5011981;28;20052;-84
2022/09/07 14:39:37;;;;;;;9.38;1.00;;;;;;;;;;5010756;28;20098;-84
2022/09/07 14:42:23;;;;;;;5.68;1.00;;;;;;;;;;5011365;28;20558;-84
2022/09/07 14:45:21;;;;;;;7.32;0.88;;;;;;;;;;5008682;28;20463;-84
2022/09/07 14:48:11;;;;;;;6.45;1.13;;;;;;;;;;5038242;28;20033;-84
2022/09/07 14:50:59;;;;;;;5.82;0.90;;;;;;;;;;5010835;28;20136;-84
2022/09/07 14:54:04;;;;;;;7.88;1.15;;;;;;;;;;5009811;28;20064;-83
2022/09/07 14:57:16;;;;;;;2.95;0.70;;;;;;;;;;5012237;28;20086;-83
2022/09/07 15:00:30;;;;;;;3.03;0.65;;;;;;;;;;5049769;28;20072;-83
2022/09/07 15:03:32;;;;;;;4.88;0.90;;;;;;;;;;5023814;28;20434;-82
2022/09/07 15:06:31;;;;;;;6.30;1.73;;;;;;;;;;5023289;28;20480;-83
2022/09/07 15:09:36;;;;;;;2.22;0.80;;;;;;;;;;5036457;28;20037;-82
2022/09/07 15:12:25;;;;;;;3.60;1.30;;;;;;;;;;5008078;28;20087;-82
2022/09/07 15:15:17;;;;;;;4.03;1.08;;;;;;;;;;5007171;28;20471;-82
2022/09/07 15:18:06;;;;;;;3.80;1.40;;;;;;;;;;5047579;28;20044;-85
2022/09/07 15:20:54;;;;;;;5.20;1.83;;;;;;;;;;5011693;28;20067;-84
2022/09/07 15:23:39;;;;;;;2.92;0.77;;;;;;;;;;5016919;28;20041;-84
2022/09/07 15:26:46;;;;;;;4.18;1.30;;;;;;;;;;5017605;28;20042;-86
2022/09/07 15:29:33;;;;;;;4.00;1.30;;;;;;;;;;5023357;28;20048;-84
2022/09/07 15:32:19;;;;;;;3.70;1.17;;;;;;;;;;5016986;28;20034;-86
2022/09/07 15:35:06;;;;;;;2.83;0.82;;;;;;;;;;4990135;28;20484;-85
2022/09/07 15:37:51;;;;;;;4.00;0.80;;;;;;;;;;5003182;28;20503;-85
2022/09/07 15:40:41;;;;;;;4.45;1.00;;;;;;;;;;4989932;28;20037;-86
2022/09/07 15:43:27;;;;;;;2.65;0.93;;;;;;;;;;4990510;28;20462;-84
2022/09/07 15:46:24;;;;;;;3.33;0.98;;;;;;;;;;4992114;28;20048;-84
2022/09/07 15:49:12;;;;;;;3.60;1.15;;;;;;;;;;5036204;28;20175;-85
2022/09/07 15:51:58;;;;;;;2.35;1.13;;;;;;;;;;5022396;28;20427;-84
2022/09/07 15:54:44;;;;;;;4.50;1.17;;;;;;;;;;5008811;28;20083;-85
2022/09/07 15:57:30;;;;;;;3.08;1.38;;;;;;;;;;5023580;28;20041;-85
2022/09/07 16:00:16;;;;;;;3.67;0.88;;;;;;;;;;5009509;28;20135;-85
2022/09/07 16:03:02;;;;;;;3.17;0.90;;;;;;;;;;5002994;28;20041;-85
2022/09/07 16:05:48;;;;;;;3.90;0.98;;;;;;;;;;5003294;28;20033;-86
2022/09/07 16:08:33;;;;;;;4.20;1.40;;;;;;;;;;5002098;28;20088;-85
2022/09/07 16:11:29;;;;;;;2.08;0.80;;;;;;;;;;5008766;28;20040;-84
2022/09/07 16:14:15;;;;;;;5.60;1.00;;;;;;;;;;5029611;28;20037;-85
2022/09/07 16:17:02;;;;;;;6.38;1.13;;;;;;;;;;5015921;28;20067;-85
2022/09/07 16:19:49;;;;;;;10.88;5.70;;;;;;;;;;5034416;28;20049;-85
2022/09/07 16:22:35;;;;;;;12.02;6.10;;;;;;;;;;5013745;28;20044;-85
2022/09/07 16:25:01;;;;;;;8.40;4.07;;;;;;;;;;5016059;28;20040;-85
2022/09/07 16:27:27;;;;;;;6.20;2.80;;;;;;;;;;5016897;28;20040;-86
2022/09/07 16:29:52;;;;;;;3.10;1.38;;;;;;;;;;5015895;28;20037;-85
2022/09/07 16:32:18;;;;;;;5.57;1.50;;;;;;;;;;5000228;28;20817;-87
2022/09/07 16:34:43;;;;;;;3.25;1.35;;;;;;;;;;5000164;28;20171;-86
2022/09/07 16:37:10;;;;;;;3.85;1.13;;;;;;;;;;5019036;28;20402;-84
2022/09/07 16:39:36;;;;;;;4.18;1.05;;;;;;;;;;5014084;28;20281;-84
2022/09/07 16:42:30;;;;;;;2.13;0.88;;;;;;;;;;5000087;28;20533;-85
2022/09/07 16:44:56;;;;;;;3.50;0.90;;;;;;;;;;5022891;28;20095;-83
2022/09/07 16:47:22;;;;;;;4.05;1.38;;;;;;;;;;5007848;28;20029;-85
2022/09/07 16:49:49;;;;;;;8.50;1.73;;;;;;;;;;5007486;28;20064;-85
2022/09/07 16:52:14;;;;;;;5.88;2.25;;;;;;;;;;5008464;28;20036;-85
2022/09/07 16:54:40;;;;;;;6.00;1.70;;;;;;;;;;5046978;28;20033;-84
2022/09/07 16:57:10;;;;;;;3.45;1.15;;;;;;;;;;5016159;28;20033;-84
2022/09/07 16:59:36;;;;;;;2.92;0.80;;;;;;;;;;5029768;28;20045;-84
2022/09/07 17:02:02;;;;;;;5.90;0.85;;;;;;;;;;5020687;28;20511;-83
2022/09/07 17:04:28;;;;;;;6.88;3.58;;;;;;;;;;5028590;28;20029;-84
2022/09/07 17:06:55;;;;;;;4.30;2.50;;;;;;;;;;5004163;28;20047;-83
2022/09/07 17:09:25;;;;;;;5.65;2.47;;;;;;;;;;5019785;28;20115;-84
2022/09/07 17:11:52;;;;;;;5.03;2.35;;;;;;;;;;5019958;28;20025;-84
2022/09/07 17:14:17;;;;;;;7.28;2.92;;;;;;;;;;5019263;28;20036;-84
2022/09/07 17:16:42;;;;;;;4.68;2.55;;;;;;;;;;5019803;28;20033;-84
2022/09/07 17:19:11;;;;;;;4.85;2.28;;;;;;;;;;5003075;28;20400;-83